createdAt,value
2018-09-04T00:00:48.330Z,106.50
2018-09-04T00:01:48.538Z,94.50
2018-09-04T00:03:51.517Z,97.70
2018-09-04T00:04:51.658Z,95.30
2018-09-04T00:05:51.849Z,97.10
2018-09-04T00:06:51.989Z,99.30
2018-09-04T00:07:52.271Z,102.20
2018-09-04T00:08:51.527Z,96.50
2018-09-04T00:09:51.900Z,97.10
2018-09-04T00:10:52.077Z,101.50
2018-09-04T00:11:51.300Z,101.10
2018-09-04T00:12:52.242Z,102.50
2018-09-04T00:13:51.239Z,99.80
2018-09-04T00:14:51.356Z,97.70
2018-09-04T00:15:51.596Z,98.50
2018-09-04T00:16:51.830Z,101.00
2018-09-04T00:18:13.061Z,103.40
2018-09-04T00:19:13.267Z,104.60
2018-09-04T00:20:34.618Z,101.20
2018-09-04T00:21:34.808Z,102.90
2018-09-04T00:22:34.973Z,99.10
2018-09-04T00:23:35.206Z,98.70
2018-09-04T00:24:35.466Z,95.40
2018-09-04T00:25:35.966Z,100.30
2018-09-04T00:26:56.073Z,96.30
2018-09-04T00:27:56.170Z,103.20
2018-09-04T00:28:56.388Z,96.00
2018-09-04T00:29:56.647Z,96.60
2018-09-04T00:30:56.830Z,99.20
2018-09-04T00:31:56.111Z,92.00
2018-09-04T00:32:56.404Z,92.40
2018-09-04T00:33:56.547Z,95.10
2018-09-04T00:34:56.688Z,99.80
2018-09-04T00:35:56.735Z,94.70
2018-09-04T00:36:56.929Z,98.50
2018-09-04T00:37:56.184Z,101.90
2018-09-04T00:38:56.341Z,95.00
2018-09-04T00:40:17.607Z,99.90
2018-09-04T00:41:38.681Z,99.20
2018-09-04T00:42:38.689Z,101.80
2018-09-04T00:43:38.747Z,103.70
2018-09-04T00:44:39.059Z,106.50
2018-09-04T00:45:39.119Z,106.10
2018-09-04T00:46:39.324Z,97.20
2018-09-04T00:48:00.257Z,96.30
2018-09-04T00:49:00.574Z,96.10
2018-09-04T00:50:00.700Z,99.10
2018-09-04T00:51:00.915Z,96.80
2018-09-04T00:52:01.138Z,94.90
2018-09-04T00:53:21.402Z,100.50
2018-09-04T00:54:21.463Z,95.80
2018-09-04T00:55:21.407Z,99.20
2018-09-04T00:56:21.654Z,99.50
2018-09-04T00:57:43.193Z,99.50
2018-09-04T00:58:43.363Z,102.40
2018-09-04T01:00:04.532Z,97.80
2018-09-04T01:01:04.650Z,105.30
2018-09-04T01:02:04.915Z,102.00
2018-09-04T01:03:04.970Z,99.90
2018-09-04T01:04:05.165Z,101.00
2018-09-04T01:05:05.438Z,93.60
2018-09-04T01:06:04.870Z,105.40
2018-09-04T01:07:05.139Z,103.90
2018-09-04T01:08:05.283Z,98.90
2018-09-04T01:09:04.595Z,100.30
2018-09-04T01:10:04.631Z,106.10
2018-09-04T01:11:04.858Z,111.20
2018-09-04T01:12:05.126Z,113.90
2018-09-04T01:13:04.361Z,107.10
2018-09-04T01:14:04.614Z,107.80
2018-09-04T01:15:04.810Z,119.70
2018-09-04T01:16:05.064Z,107.20
2018-09-04T01:17:05.344Z,119.70
2018-09-04T01:18:04.563Z,119.60
2018-09-04T01:19:04.936Z,122.20
2018-09-04T01:20:05.283Z,123.00
2018-09-04T01:21:04.542Z,123.50
2018-09-04T01:22:04.679Z,126.60
2018-09-04T01:23:04.878Z,118.20
2018-09-04T01:24:25.976Z,128.10
2018-09-04T01:25:26.130Z,125.20
2018-09-04T01:26:26.452Z,127.20
2018-09-04T01:27:26.358Z,133.90
2018-09-04T01:28:26.663Z,143.60
2018-09-04T01:29:27.159Z,146.10
2018-09-04T01:30:26.473Z,156.60
2018-09-04T01:31:26.708Z,143.30
2018-09-04T01:32:27.041Z,157.70
2018-09-04T01:33:26.136Z,149.20
2018-09-04T01:34:26.351Z,152.60
2018-09-04T01:35:26.498Z,148.40
2018-09-04T01:36:26.697Z,163.20
2018-09-04T01:37:26.863Z,161.50
2018-09-04T01:38:46.876Z,173.30
2018-09-04T01:39:46.959Z,167.00
2018-09-04T01:40:47.072Z,181.20
2018-09-04T01:41:47.294Z,181.90
2018-09-04T01:42:47.674Z,188.20
2018-09-04T01:43:47.770Z,177.80
2018-09-04T01:44:46.871Z,189.60
2018-09-04T01:46:08.010Z,190.70
2018-09-04T01:47:29.296Z,189.40
2018-09-04T01:48:29.771Z,199.00
2018-09-04T01:49:50.737Z,196.30
2018-09-04T01:50:51.016Z,189.80
2018-09-04T01:51:50.927Z,182.30
2018-09-04T01:53:11.758Z,193.40
2018-09-04T01:54:12.246Z,172.20
2018-09-04T01:55:12.502Z,188.10
2018-09-04T01:56:11.788Z,185.60
2018-09-04T01:57:33.006Z,192.00
2018-09-04T01:58:33.147Z,199.80
2018-09-04T01:59:33.462Z,191.10
2018-09-04T02:00:33.741Z,198.90
2018-09-04T02:01:33.767Z,196.50
2018-09-04T02:02:33.966Z,217.10
2018-09-04T02:03:33.187Z,201.20
2018-09-04T02:04:33.363Z,216.40
2018-09-04T02:05:33.342Z,209.30
2018-09-04T02:06:33.368Z,225.20
2018-09-04T02:07:54.447Z,210.80
2018-09-04T02:08:54.761Z,229.80
2018-09-04T02:09:55.075Z,217.40
2018-09-04T02:10:55.283Z,235.40
2018-09-04T02:11:55.548Z,220.00
2018-09-04T02:12:54.825Z,212.40
2018-09-04T02:13:55.111Z,222.30
2018-09-04T02:14:55.395Z,227.70
2018-09-04T02:15:54.662Z,203.70
2018-09-04T02:16:54.908Z,227.70
2018-09-04T02:17:55.186Z,226.50
2018-09-04T02:19:16.320Z,222.40
2018-09-04T02:20:16.459Z,215.80
2018-09-04T02:21:16.685Z,212.10
2018-09-04T02:22:16.827Z,216.00
2018-09-04T02:23:17.103Z,220.30
2018-09-04T02:24:16.434Z,220.20
2018-09-04T02:25:16.546Z,196.50
2018-09-04T02:26:16.697Z,207.50
2018-09-04T02:27:37.887Z,211.70
2018-09-04T02:28:59.747Z,213.20
2018-09-04T02:29:59.693Z,220.10
2018-09-04T02:31:00.080Z,213.50
2018-09-04T02:32:00.065Z,224.00
2018-09-04T02:33:00.324Z,239.10
2018-09-04T02:34:00.495Z,237.60
2018-09-04T02:35:00.801Z,260.90
2018-09-04T02:36:00.233Z,248.40
2018-09-04T02:37:00.266Z,236.30
2018-09-04T02:38:00.556Z,242.30
2018-09-04T02:38:59.664Z,234.10
2018-09-04T02:39:59.950Z,242.60
2018-09-04T02:41:00.188Z,217.00
2018-09-04T02:42:41.952Z,228.00
2018-09-04T02:44:04.303Z,213.20
2018-09-04T02:45:04.486Z,219.30
2018-09-04T02:46:04.711Z,222.10
2018-09-04T02:47:03.918Z,212.50
2018-09-04T02:48:03.970Z,219.30
2018-09-04T02:49:03.986Z,213.00
2018-09-04T02:50:24.710Z,203.80
2018-09-04T02:51:25.002Z,209.30
2018-09-04T02:52:25.224Z,204.40
2018-09-04T02:53:25.499Z,227.20
2018-09-04T02:54:25.638Z,214.90
2018-09-04T02:55:45.717Z,219.60
2018-09-04T02:56:45.928Z,225.20
2018-09-04T02:57:45.959Z,230.20
2018-09-04T02:58:46.165Z,235.80
2018-09-04T02:59:46.521Z,243.40
2018-09-04T03:00:45.776Z,238.50
2018-09-04T03:02:06.847Z,250.80
2018-09-04T03:03:06.966Z,234.40
2018-09-04T03:04:07.213Z,239.10
2018-09-04T03:05:07.569Z,243.00
2018-09-04T03:06:08.003Z,250.70
2018-09-04T03:07:07.658Z,248.90
2018-09-04T03:08:07.719Z,240.60
2018-09-04T03:09:07.944Z,251.00
2018-09-04T03:10:07.038Z,233.10
2018-09-04T03:11:07.290Z,231.20
2018-09-04T03:12:07.542Z,230.50
2018-09-04T03:13:07.816Z,259.60
2018-09-04T03:14:07.331Z,272.60
2018-09-04T03:15:07.672Z,232.00
2018-09-04T03:16:07.818Z,255.90
2018-09-04T03:17:08.835Z,233.20
2018-09-04T03:19:30.851Z,239.10
2018-09-04T03:20:31.197Z,236.90
2018-09-04T03:21:31.156Z,235.30
2018-09-04T03:22:31.355Z,219.90
2018-09-04T03:23:31.663Z,219.80
2018-09-04T03:24:31.891Z,231.60
2018-09-04T03:25:31.024Z,222.00
2018-09-04T03:26:30.993Z,229.40
2018-09-04T03:27:31.119Z,229.40
2018-09-04T03:28:31.275Z,218.50
2018-09-04T03:29:31.352Z,221.80
2018-09-04T03:30:31.461Z,224.40
2018-09-04T03:31:52.329Z,214.70
2018-09-04T03:32:52.590Z,219.10
2018-09-04T03:33:52.821Z,225.70
2018-09-04T03:34:53.151Z,218.00
2018-09-04T03:35:52.323Z,216.00
2018-09-04T03:36:52.470Z,205.30
2018-09-04T03:37:52.822Z,223.00
2018-09-04T03:38:53.198Z,218.30
2018-09-04T03:39:52.424Z,211.20
2018-09-04T03:40:52.549Z,217.90
2018-09-04T03:41:52.717Z,217.40
2018-09-04T03:42:52.820Z,211.80
2018-09-04T03:43:53.094Z,213.00
2018-09-04T03:44:52.192Z,230.40
2018-09-04T03:45:52.297Z,236.00
2018-09-04T03:46:52.465Z,225.00
2018-09-04T03:47:52.642Z,231.50
2018-09-04T03:48:52.966Z,228.20
2018-09-04T03:49:53.057Z,236.20
2018-09-04T03:50:53.136Z,234.40
2018-09-04T03:51:52.238Z,218.10
2018-09-04T03:52:52.268Z,220.50
2018-09-04T03:53:52.675Z,219.40
2018-09-04T03:54:52.749Z,219.70
2018-09-04T03:55:52.961Z,221.60
2018-09-04T03:56:53.260Z,227.50
2018-09-04T03:57:52.362Z,241.80
2018-09-04T03:58:52.654Z,234.20
2018-09-04T03:59:52.860Z,232.20
2018-09-04T04:00:53.250Z,243.60
2018-09-04T04:02:34.512Z,226.40
2018-09-04T04:03:34.678Z,231.60
2018-09-04T04:04:34.962Z,238.90
2018-09-04T04:05:35.162Z,241.40
2018-09-04T04:06:35.494Z,241.50
2018-09-04T04:07:34.654Z,227.50
2018-09-04T04:08:34.835Z,222.50
2018-09-04T04:09:35.035Z,233.70
2018-09-04T04:10:35.225Z,223.50
2018-09-04T04:11:56.502Z,221.80
2018-09-04T04:13:17.835Z,238.20
2018-09-04T04:14:18.676Z,231.20
2018-09-04T04:15:18.887Z,217.80
2018-09-04T04:16:18.290Z,222.90
2018-09-04T04:17:18.359Z,226.30
2018-09-04T04:18:18.483Z,212.20
2018-09-04T04:19:18.714Z,213.60
2018-09-04T04:20:18.091Z,214.50
2018-09-04T04:21:18.479Z,213.80
2018-09-04T04:22:18.957Z,212.80
2018-09-04T04:23:18.225Z,211.70
2018-09-04T04:24:18.536Z,206.30
2018-09-04T04:25:18.657Z,203.00
2018-09-04T04:26:18.886Z,207.60
2018-09-04T04:27:18.301Z,194.90
2018-09-04T04:28:18.487Z,187.10
2018-09-04T04:29:18.571Z,204.50
2018-09-04T04:31:00.046Z,191.20
2018-09-04T04:32:00.049Z,188.80
2018-09-04T04:33:42.832Z,185.90
2018-09-04T04:34:43.070Z,194.90
2018-09-04T04:35:43.254Z,192.60
2018-09-04T04:36:43.729Z,187.60
2018-09-04T04:37:43.100Z,186.90
2018-09-04T04:38:43.402Z,177.70
2018-09-04T04:39:42.819Z,180.70
2018-09-04T04:41:04.151Z,177.30
2018-09-04T04:42:04.449Z,165.70
2018-09-04T04:43:04.829Z,172.00
2018-09-04T04:44:04.966Z,167.40
2018-09-04T04:45:25.161Z,162.20
2018-09-04T04:46:25.631Z,158.90
2018-09-04T04:47:25.847Z,162.40
2018-09-04T04:48:26.311Z,167.20
2018-09-04T04:49:25.538Z,162.70
2018-09-04T04:50:25.690Z,159.80
2018-09-04T04:51:26.006Z,149.20
2018-09-04T04:52:26.159Z,147.10
2018-09-04T04:53:25.296Z,153.20
2018-09-04T04:54:25.559Z,148.10
2018-09-04T04:55:25.877Z,145.70
2018-09-04T04:56:26.203Z,146.60
2018-09-04T04:57:25.640Z,146.50
2018-09-04T04:58:25.940Z,150.20
2018-09-04T04:59:26.215Z,150.70
2018-09-04T05:00:25.572Z,152.10
2018-09-04T05:01:26.028Z,144.30
2018-09-04T05:02:25.382Z,144.90
2018-09-04T05:03:46.740Z,144.70
2018-09-04T05:05:08.701Z,142.60
2018-09-04T05:06:30.172Z,143.90
2018-09-04T05:07:30.779Z,147.00
2018-09-04T05:08:30.800Z,143.00
2018-09-04T05:09:51.445Z,142.60
2018-09-04T05:10:51.937Z,143.80
2018-09-04T05:11:52.378Z,153.10
2018-09-04T05:13:12.865Z,142.40
2018-09-04T05:14:55.252Z,149.70
2018-09-04T05:15:55.765Z,145.40
2018-09-04T05:16:56.130Z,150.40
2018-09-04T05:17:55.262Z,147.90
2018-09-04T05:18:55.486Z,145.70
2018-09-04T05:19:55.631Z,143.80
2018-09-04T05:20:55.633Z,141.40
2018-09-04T05:21:55.909Z,137.20
2018-09-04T05:22:56.229Z,142.80
2018-09-04T05:23:55.315Z,130.30
2018-09-04T05:24:55.839Z,135.60
2018-09-04T05:25:56.186Z,129.80
2018-09-04T05:27:37.529Z,130.80
2018-09-04T05:28:37.861Z,127.50
2018-09-04T05:29:38.283Z,128.40
2018-09-04T05:30:37.586Z,116.50
2018-09-04T05:31:58.881Z,118.30
2018-09-04T05:33:20.089Z,119.60
2018-09-04T05:34:41.313Z,116.20
2018-09-04T05:35:41.533Z,112.90
2018-09-04T05:36:41.920Z,114.50
2018-09-04T05:38:03.456Z,116.60
2018-09-04T05:39:03.836Z,117.70
2018-09-04T05:40:04.394Z,113.00
2018-09-04T05:41:03.759Z,109.50
2018-09-04T05:42:25.658Z,112.50
2018-09-04T05:44:30.113Z,102.60
2018-09-04T05:45:31.136Z,106.60
2018-09-04T05:46:30.640Z,102.30
2018-09-04T05:47:31.004Z,99.20
2018-09-04T05:48:30.252Z,99.20
2018-09-04T05:49:30.558Z,102.90
2018-09-04T05:50:51.878Z,97.10
2018-09-04T05:51:52.841Z,97.10
2018-09-04T05:53:13.391Z,95.60
2018-09-04T05:54:34.662Z,94.30
2018-09-04T05:55:34.616Z,96.90
2018-09-04T05:56:34.863Z,92.60
2018-09-04T05:57:35.230Z,90.30
2018-09-04T05:58:35.505Z,84.60
2018-09-04T05:59:34.826Z,92.70
2018-09-04T06:00:35.174Z,87.90
2018-09-04T06:01:35.900Z,82.90
2018-09-04T06:02:35.279Z,80.60
2018-09-04T06:03:35.512Z,76.80
2018-09-04T06:04:55.898Z,76.60
2018-09-04T06:05:56.312Z,77.10
2018-09-04T06:06:56.860Z,71.70
2018-09-04T06:07:56.309Z,68.90
2018-09-04T06:08:56.472Z,67.30
2018-09-04T06:10:17.765Z,65.80
2018-09-04T06:11:17.976Z,63.10
2018-09-04T06:12:18.311Z,65.30
2018-09-04T06:13:18.795Z,62.20
2018-09-04T06:14:18.293Z,61.70
2018-09-04T06:15:39.557Z,55.20
2018-09-04T06:16:39.773Z,58.20
2018-09-04T06:17:40.092Z,59.20
2018-09-04T06:18:40.513Z,54.40
2018-09-04T06:19:39.721Z,57.50
2018-09-04T06:21:21.660Z,48.40
2018-09-04T06:22:21.743Z,52.50
2018-09-04T06:23:21.978Z,54.50
2018-09-04T06:24:22.939Z,50.60
2018-09-04T06:25:23.105Z,51.20
2018-09-04T06:26:44.872Z,52.40
2018-09-04T06:27:44.392Z,42.20
2018-09-04T06:28:44.990Z,46.10
2018-09-04T06:29:44.541Z,47.10
2018-09-04T06:30:44.754Z,43.90
2018-09-04T06:31:44.280Z,40.40
2018-09-04T06:32:44.767Z,40.40
2018-09-04T06:34:05.644Z,38.20
2018-09-04T06:35:06.212Z,38.40
2018-09-04T06:36:05.843Z,43.30
2018-09-04T06:37:06.738Z,40.10
2018-09-04T06:38:06.149Z,38.70
2018-09-04T06:39:05.615Z,36.10
2018-09-04T06:40:06.130Z,34.80
2018-09-04T06:41:05.721Z,35.90
2018-09-04T06:42:27.506Z,37.80
2018-09-04T06:43:49.010Z,34.10
2018-09-04T06:44:49.329Z,36.80
2018-09-04T06:46:31.940Z,34.30
2018-09-04T06:47:32.739Z,36.00
2018-09-04T06:48:32.195Z,34.20
2018-09-04T06:49:32.907Z,33.50
2018-09-04T06:50:53.851Z,30.10
2018-09-04T06:51:54.305Z,32.40
2018-09-04T06:52:53.717Z,29.00
2018-09-04T06:54:15.168Z,34.80
2018-09-04T06:55:15.655Z,31.70
2018-09-04T06:56:36.823Z,33.20
2018-09-04T06:57:37.413Z,27.30
2018-09-04T06:58:37.833Z,29.70
2018-09-04T06:59:37.213Z,28.60
2018-09-04T07:00:37.758Z,29.80
2018-09-04T07:01:37.242Z,31.30
2018-09-04T07:02:37.480Z,27.70
2018-09-04T07:03:38.023Z,29.20
2018-09-04T07:04:37.708Z,29.40
2018-09-04T07:05:37.151Z,29.10
2018-09-04T07:06:37.517Z,28.10
2018-09-04T07:07:58.928Z,30.40
2018-09-04T07:08:59.026Z,28.30
2018-09-04T07:09:59.592Z,26.60
2018-09-04T07:10:59.112Z,26.50
2018-09-04T07:12:20.036Z,25.90
2018-09-04T07:13:20.443Z,31.80
2018-09-04T07:14:20.650Z,29.10
2018-09-04T07:15:20.848Z,26.50
2018-09-04T07:16:21.024Z,27.10
2018-09-04T07:17:20.239Z,24.90
2018-09-04T07:18:20.517Z,27.50
2018-09-04T07:19:22.180Z,27.50
2018-09-04T07:20:20.413Z,25.10
2018-09-04T07:21:20.631Z,26.70
2018-09-04T07:22:42.073Z,28.70
2018-09-04T07:24:03.523Z,24.20
2018-09-04T07:25:24.980Z,24.50
2018-09-04T07:26:25.184Z,27.30
2018-09-04T07:27:46.328Z,29.00
2018-09-04T07:28:46.598Z,25.30
2018-09-04T07:29:46.951Z,26.80
2018-09-04T07:30:47.361Z,29.30
2018-09-04T07:31:47.290Z,32.50
2018-09-04T07:32:46.880Z,27.00
2018-09-04T07:33:47.696Z,26.00
2018-09-04T07:34:47.045Z,26.80
2018-09-04T07:35:47.498Z,27.70
2018-09-04T07:36:46.822Z,24.50
2018-09-04T07:38:08.247Z,24.80
2018-09-04T07:39:30.042Z,25.80
2018-09-04T07:40:30.709Z,28.50
2018-09-04T07:41:30.130Z,28.30
2018-09-04T07:42:30.434Z,27.40
2018-09-04T07:43:30.929Z,26.10
2018-09-04T07:44:30.256Z,28.90
2018-09-04T07:45:30.586Z,29.30
2018-09-04T07:46:51.085Z,31.20
2018-09-04T07:47:51.351Z,25.90
2018-09-04T07:48:51.791Z,26.80
2018-09-04T07:49:52.056Z,29.10
2018-09-04T07:51:54.783Z,30.70
2018-09-04T07:52:55.114Z,27.40
2018-09-04T07:53:55.375Z,28.30
2018-09-04T07:54:55.937Z,29.80
2018-09-04T07:55:55.511Z,28.50
2018-09-04T07:56:55.852Z,29.10
2018-09-04T07:57:55.170Z,28.50
2018-09-04T07:58:55.624Z,29.40
2018-09-04T07:59:55.068Z,29.40
2018-09-04T08:00:55.593Z,28.40
2018-09-04T08:01:55.157Z,25.90
2018-09-04T08:02:55.586Z,30.70
2018-09-04T08:03:54.890Z,33.70
2018-09-04T08:04:55.347Z,29.40
2018-09-04T08:05:54.844Z,31.90
2018-09-04T08:06:55.463Z,28.20
2018-09-04T08:07:55.123Z,27.50
2018-09-04T08:09:16.733Z,26.00
2018-09-04T08:10:17.346Z,26.00
2018-09-04T08:11:16.849Z,28.40
2018-09-04T08:12:17.317Z,32.20
2018-09-04T08:13:17.723Z,26.30
2018-09-04T08:14:59.389Z,25.50
2018-09-04T08:15:59.607Z,26.60
2018-09-04T08:17:00.028Z,30.60
2018-09-04T08:18:00.333Z,31.30
2018-09-04T08:19:00.646Z,26.00
2018-09-04T08:20:00.335Z,28.60
2018-09-04T08:20:59.884Z,25.80
2018-09-04T08:22:00.361Z,27.20
2018-09-04T08:22:59.781Z,25.10
2018-09-04T08:24:00.340Z,26.10
2018-09-04T08:24:59.777Z,25.00
2018-09-04T08:26:00.014Z,31.50
2018-09-04T08:27:00.483Z,25.50
2018-09-04T08:27:59.850Z,24.00
2018-09-04T08:29:00.409Z,26.80
2018-09-04T08:29:59.798Z,24.50
2018-09-04T08:31:01.107Z,28.10
2018-09-04T08:32:20.830Z,28.70
2018-09-04T08:33:22.950Z,24.70
2018-09-04T08:34:42.392Z,27.70
2018-09-04T08:36:04.252Z,24.50
2018-09-04T08:37:26.278Z,25.80
2018-09-04T08:38:26.713Z,24.00
2018-09-04T08:39:27.341Z,25.10
2018-09-04T08:40:26.960Z,25.80
2018-09-04T08:41:26.509Z,24.50
2018-09-04T08:42:51.195Z,26.10
2018-09-04T08:43:50.487Z,27.70
2018-09-04T08:44:50.926Z,27.70
2018-09-04T08:45:50.245Z,24.80
2018-09-04T08:46:50.568Z,23.40
2018-09-04T08:48:12.014Z,24.40
2018-09-04T08:49:12.526Z,23.50
2018-09-04T08:50:11.994Z,27.20
2018-09-04T08:51:12.312Z,25.70
2018-09-04T08:52:12.780Z,23.10
2018-09-04T08:53:12.299Z,24.40
2018-09-04T08:54:12.654Z,28.00
2018-09-04T08:55:12.073Z,27.10
2018-09-04T08:56:12.698Z,23.60
2018-09-04T08:57:12.622Z,24.60
2018-09-04T08:58:35.355Z,21.10
2018-09-04T08:59:35.796Z,22.00
2018-09-04T09:00:36.102Z,27.60
2018-09-04T09:01:56.635Z,23.90
2018-09-04T09:02:57.090Z,23.20
2018-09-04T09:03:57.658Z,22.60
2018-09-04T09:04:56.935Z,19.80
2018-09-04T09:05:57.235Z,21.40
2018-09-04T09:06:56.917Z,18.80
2018-09-04T09:07:57.378Z,24.20
2018-09-04T09:08:56.818Z,22.30
2018-09-04T09:09:57.358Z,20.20
2018-09-04T09:10:56.977Z,20.00
2018-09-04T09:11:57.961Z,19.10
2018-09-04T09:12:57.296Z,18.60
2018-09-04T09:13:56.563Z,18.60
2018-09-04T09:16:21.902Z,16.70
2018-09-04T09:17:22.145Z,16.90
2018-09-04T09:18:23.270Z,23.30
2018-09-04T09:19:22.685Z,16.80
2018-09-04T09:20:22.155Z,17.40
2018-09-04T09:21:22.679Z,19.00
2018-09-04T09:22:22.055Z,20.80
2018-09-04T09:23:22.314Z,19.50
2018-09-04T09:24:22.631Z,19.90
2018-09-04T09:26:04.528Z,20.10
2018-09-04T09:27:26.058Z,16.20
2018-09-04T09:28:26.535Z,16.40
2018-09-04T09:29:27.021Z,19.60
2018-09-04T09:30:26.367Z,17.20
2018-09-04T09:31:27.781Z,22.00
2018-09-04T09:32:26.290Z,17.60
2018-09-04T09:33:26.721Z,22.20
2018-09-04T09:34:26.121Z,20.50
2018-09-04T09:35:47.741Z,19.90
2018-09-04T09:36:49.389Z,17.30
2018-09-04T09:37:48.230Z,20.30
2018-09-04T09:38:48.506Z,17.20
2018-09-04T09:40:30.264Z,16.20
2018-09-04T09:41:30.626Z,16.20
2018-09-04T09:42:31.402Z,19.20
2018-09-04T09:43:52.035Z,15.60
2018-09-04T09:44:52.412Z,20.60
2018-09-04T09:45:52.807Z,19.70
2018-09-04T09:46:52.169Z,17.20
2018-09-04T09:47:52.878Z,18.70
2018-09-04T09:48:52.158Z,16.00
2018-09-04T09:49:52.524Z,16.60
2018-09-04T09:50:52.977Z,15.00
2018-09-04T09:51:52.483Z,17.90
2018-09-04T09:53:14.426Z,20.20
2018-09-04T09:54:36.134Z,15.40
2018-09-04T09:55:57.619Z,13.80
2018-09-04T09:56:58.148Z,16.60
2018-09-04T09:57:57.511Z,17.30
2018-09-04T09:58:58.041Z,18.20
2018-09-04T10:00:18.723Z,16.30
2018-09-04T10:01:19.189Z,22.40
2018-09-04T10:02:19.480Z,14.40
2018-09-04T10:03:40.326Z,15.10
2018-09-04T10:04:40.601Z,15.90
2018-09-04T10:05:40.842Z,15.30
2018-09-04T10:06:40.229Z,14.80
2018-09-04T10:08:02.682Z,17.70
2018-09-04T10:09:02.186Z,16.20
2018-09-04T10:10:02.751Z,15.80
2018-09-04T10:11:02.361Z,15.70
2018-09-04T10:12:02.934Z,18.10
2018-09-04T10:13:02.438Z,17.70
2018-09-04T10:14:02.859Z,19.00
2018-09-04T10:15:02.589Z,19.60
2018-09-04T10:16:03.055Z,18.20
2018-09-04T10:17:03.038Z,16.70
2018-09-04T10:18:02.783Z,17.80
2018-09-04T10:19:02.085Z,15.20
2018-09-04T10:20:02.559Z,15.30
2018-09-04T10:21:03.086Z,17.80
2018-09-04T10:22:44.980Z,15.00
2018-09-04T10:23:45.465Z,13.40
2018-09-04T10:24:45.847Z,15.00
2018-09-04T10:25:45.258Z,20.30
2018-09-04T10:26:45.797Z,14.90
2018-09-04T10:27:45.084Z,18.00
2018-09-04T10:28:45.449Z,17.30
2018-09-04T10:29:45.824Z,17.20
2018-09-04T10:31:27.522Z,15.60
2018-09-04T10:32:27.969Z,14.80
2018-09-04T10:33:28.176Z,15.90
2018-09-04T10:34:27.639Z,16.70
2018-09-04T10:35:28.235Z,18.20
2018-09-04T10:36:48.892Z,13.50
2018-09-04T10:37:49.318Z,16.80
2018-09-04T10:38:49.723Z,17.50
2018-09-04T10:39:49.084Z,15.00
2018-09-04T10:40:49.361Z,15.30
2018-09-04T10:42:10.955Z,15.30
2018-09-04T10:43:32.392Z,15.30
2018-09-04T10:44:32.707Z,18.20
2018-09-04T10:45:33.152Z,14.50
2018-09-04T10:46:32.501Z,13.20
2018-09-04T10:47:32.900Z,13.70
2018-09-04T10:48:33.120Z,15.30
2018-09-04T10:49:33.315Z,16.40
2018-09-04T10:50:54.599Z,19.50
2018-09-04T10:51:54.939Z,18.00
2018-09-04T10:53:16.831Z,16.90
2018-09-04T10:54:17.062Z,13.90
2018-09-04T10:55:17.487Z,14.10
2018-09-04T10:56:16.762Z,13.70
2018-09-04T10:57:17.260Z,14.20
2018-09-04T10:58:17.698Z,16.50
2018-09-04T10:59:17.018Z,14.50
2018-09-04T11:00:17.231Z,15.70
2018-09-04T11:01:17.779Z,14.90
2018-09-04T11:02:17.139Z,17.20
2018-09-04T11:03:17.484Z,16.90
2018-09-04T11:04:16.714Z,13.70
2018-09-04T11:05:16.976Z,16.30
2018-09-04T11:06:17.973Z,13.70
2018-09-04T11:07:39.013Z,13.20
2018-09-04T11:08:39.491Z,13.30
2018-09-04T11:09:39.990Z,13.40
2018-09-04T11:10:39.383Z,14.50
2018-09-04T11:11:40.250Z,17.20
2018-09-04T11:12:39.762Z,17.20
2018-09-04T11:13:39.053Z,13.80
2018-09-04T11:14:39.324Z,15.10
2018-09-04T11:15:39.603Z,15.80
2018-09-04T11:17:00.126Z,14.90
2018-09-04T11:18:00.633Z,14.00
2018-09-04T11:19:01.398Z,13.70
2018-09-04T11:20:00.627Z,13.10
2018-09-04T11:21:00.906Z,13.00
2018-09-04T11:22:00.150Z,13.20
2018-09-04T11:23:00.653Z,14.60
2018-09-04T11:24:00.858Z,17.80
2018-09-04T11:25:01.238Z,14.70
2018-09-04T11:26:00.421Z,16.30
2018-09-04T11:27:02.844Z,19.60
2018-09-04T11:28:00.178Z,15.30
2018-09-04T11:29:01.210Z,16.40
2018-09-04T11:30:00.724Z,13.70
2018-09-04T11:31:00.944Z,15.60
2018-09-04T11:32:00.436Z,17.80
2018-09-04T11:33:00.686Z,14.40
2018-09-04T11:34:00.158Z,19.60
2018-09-04T11:35:21.780Z,16.50
2018-09-04T11:36:22.084Z,15.60
2018-09-04T11:37:22.338Z,17.40
2018-09-04T11:38:22.666Z,14.80
2018-09-04T11:39:21.976Z,13.70
2018-09-04T11:40:23.079Z,12.60
2018-09-04T11:41:22.654Z,16.80
2018-09-04T11:42:22.021Z,15.30
2018-09-04T11:43:22.315Z,13.70
2018-09-04T11:44:22.705Z,13.40
2018-09-04T11:45:43.383Z,17.50
2018-09-04T11:46:44.308Z,16.00
2018-09-04T11:47:43.834Z,20.40
2018-09-04T11:48:43.284Z,15.50
2018-09-04T11:49:43.650Z,13.60
2018-09-04T11:50:44.179Z,16.60
2018-09-04T11:51:43.519Z,13.90
2018-09-04T11:53:05.207Z,15.40
2018-09-04T11:54:05.524Z,18.40
2018-09-04T11:55:26.821Z,13.20
2018-09-04T11:56:27.383Z,13.20
2018-09-04T11:57:27.758Z,17.00
2018-09-04T11:58:27.247Z,14.20
2018-09-04T11:59:27.956Z,15.40
2018-09-04T12:00:27.399Z,14.80
2018-09-04T12:01:27.716Z,18.50
2018-09-04T12:02:27.140Z,16.10
2018-09-04T12:03:27.682Z,17.80
2018-09-04T12:04:26.902Z,17.60
2018-09-04T12:05:48.714Z,16.90
2018-09-04T12:06:49.211Z,13.60
2018-09-04T12:08:11.299Z,16.50
2018-09-04T12:09:11.591Z,15.60
2018-09-04T12:10:12.198Z,17.80
2018-09-04T12:11:11.714Z,14.60
2018-09-04T12:12:12.804Z,13.20
2018-09-04T12:13:12.232Z,17.60
2018-09-04T12:14:11.655Z,19.80
2018-09-04T12:15:12.230Z,16.20
2018-09-04T12:16:11.800Z,14.00
2018-09-04T12:17:12.820Z,14.40
2018-09-04T12:18:12.079Z,15.50
2018-09-04T12:19:53.805Z,12.00
2018-09-04T12:20:54.254Z,11.60
2018-09-04T12:21:54.695Z,11.70
2018-09-04T12:22:54.191Z,12.40
2018-09-04T12:23:54.514Z,18.30
2018-09-04T12:24:53.950Z,13.70
2018-09-04T12:25:54.446Z,13.40
2018-09-04T12:26:53.998Z,13.00
2018-09-04T12:27:54.463Z,13.00
2018-09-04T12:28:53.836Z,14.80
2018-09-04T12:29:54.354Z,10.90
2018-09-04T12:30:54.949Z,12.10
2018-09-04T12:31:55.003Z,16.70
2018-09-04T12:32:54.557Z,10.00
2018-09-04T12:34:36.568Z,14.70
2018-09-04T12:35:37.713Z,14.20
2018-09-04T12:36:37.499Z,16.50
2018-09-04T12:37:58.877Z,16.10
2018-09-04T12:38:59.206Z,15.60
2018-09-04T12:40:20.464Z,11.40
2018-09-04T12:41:21.371Z,11.70
2018-09-04T12:42:20.831Z,17.30
2018-09-04T12:43:21.139Z,13.10
2018-09-04T12:44:20.637Z,35.10
2018-09-04T12:45:21.347Z,26.30
2018-09-04T12:46:20.718Z,13.20
2018-09-04T12:47:21.118Z,14.50
2018-09-04T12:48:20.665Z,16.60
2018-09-04T12:49:21.187Z,16.20
2018-09-04T12:50:21.391Z,16.30
2018-09-04T12:51:20.744Z,16.10
2018-09-04T12:52:21.084Z,12.50
2018-09-04T12:53:21.382Z,13.20
2018-09-04T12:54:41.589Z,14.80
2018-09-04T12:55:42.117Z,14.70
2018-09-04T12:56:41.586Z,11.00
2018-09-04T12:58:03.633Z,13.00
2018-09-04T12:59:03.890Z,12.80
2018-09-04T13:00:04.556Z,13.30
2018-09-04T13:01:04.988Z,12.70
2018-09-04T13:02:04.600Z,15.20
2018-09-04T13:03:03.916Z,13.40
2018-09-04T13:04:04.599Z,12.30
2018-09-04T13:05:04.174Z,14.00
2018-09-04T13:06:03.639Z,12.40
2018-09-04T13:07:04.127Z,12.90
2018-09-04T13:08:04.591Z,11.40
2018-09-04T13:09:04.189Z,11.10
2018-09-04T13:10:03.928Z,10.50
2018-09-04T13:11:05.260Z,12.10
2018-09-04T13:12:03.673Z,11.10
2018-09-04T13:13:04.121Z,10.70
2018-09-04T13:14:04.400Z,13.10
2018-09-04T13:15:03.776Z,10.20
2018-09-04T13:16:04.298Z,9.60
2018-09-04T13:17:03.809Z,10.30
2018-09-04T13:18:04.147Z,12.60
2018-09-04T13:19:04.548Z,13.70
2018-09-04T13:20:04.505Z,15.20
2018-09-04T13:21:03.809Z,12.60
2018-09-04T13:22:04.300Z,9.70
2018-09-04T13:23:03.932Z,15.00
2018-09-04T13:24:04.190Z,11.00
2018-09-04T13:25:03.674Z,11.00
2018-09-04T13:26:04.004Z,9.70
2018-09-04T13:27:04.135Z,12.80
2018-09-04T13:28:04.868Z,9.60
2018-09-04T13:29:04.256Z,10.20
2018-09-04T13:30:04.379Z,10.00
2018-09-04T13:31:03.649Z,9.60
2018-09-04T13:32:04.003Z,11.00
2018-09-04T13:33:04.276Z,13.20
2018-09-04T13:34:03.654Z,9.50
2018-09-04T13:35:04.034Z,12.50